Time;durP1;ratioP1;P1;durP2;ratioP2;P2;SDS_P1;SDS_P2;PMS_P1;PMS_P2;Temp;Humidity;BMP_temperature;BMP_pressure;BME280_temperature;BME280_humidity;BME280_pressure;Samples;Min_cycle;Max_cycle;Signal;HPM_P1;HPM_P2
2023/07/07 00:00:39;;;;;;;4.50;2.03;;;;;;;15.96;100.00;101737.94;6228463;28;20050;-70
2023/07/07 00:03:42;;;;;;;4.95;2.70;;;;;;;15.87;100.00;101733.19;6218418;28;20057;-70
2023/07/07 00:06:44;;;;;;;3.67;2.13;;;;;;;15.82;100.00;101732.59;6229350;28;20350;-70
2023/07/07 00:09:45;;;;;;;2.80;1.92;;;;;;;15.83;100.00;101731.66;6229590;28;20370;-70
2023/07/07 00:12:47;;;;;;;4.40;2.20;;;;;;;15.78;100.00;101731.94;6229449;28;20076;-70
2023/07/07 00:15:48;;;;;;;3.83;2.05;;;;;;;15.75;100.00;101731.25;6221364;28;20038;-70
2023/07/07 00:18:51;;;;;;;4.00;2.72;;;;;;;15.78;100.00;101731.06;6205232;28;20054;-70
2023/07/07 00:21:58;;;;;;;3.97;1.92;;;;;;;15.67;100.00;101732.56;6204618;28;20057;-70
2023/07/07 00:24:59;;;;;;;5.38;2.05;;;;;;;15.66;100.00;101737.94;6217396;28;20077;-70
2023/07/07 00:28:00;;;;;;;5.55;2.08;;;;;;;15.61;100.00;101738.19;6229150;28;20046;-70
2023/07/07 00:31:02;;;;;;;3.83;2.05;;;;;;;15.52;100.00;101730.78;6229357;28;20049;-70
2023/07/07 00:34:05;;;;;;;3.67;2.30;;;;;;;15.46;100.00;101737.28;6228774;28;20046;-70
2023/07/07 00:37:06;;;;;;;3.90;2.17;;;;;;;15.34;100.00;101737.13;6229161;28;20057;-70
2023/07/07 00:40:09;;;;;;;4.65;2.72;;;;;;;15.28;100.00;101734.84;6228970;28;20064;-70
2023/07/07 00:43:11;;;;;;;3.60;2.17;;;;;;;15.20;100.00;101736.13;6228832;28;20180;-70
2023/07/07 00:46:14;;;;;;;4.32;2.67;;;;;;;15.14;100.00;101738.28;6228919;28;20053;-70
2023/07/07 00:49:21;;;;;;;5.60;2.33;;;;;;;15.12;100.00;101740.16;6228614;28;20060;-70
2023/07/07 00:52:23;;;;;;;3.83;2.30;;;;;;;15.13;100.00;101745.38;6228549;28;20053;-70
2023/07/07 00:55:29;;;;;;;4.00;2.40;;;;;;;15.11;100.00;101746.38;6217155;28;20083;-70
2023/07/07 00:58:32;;;;;;;2.58;2.17;;;;;;;15.07;100.00;101748.34;6204305;28;20050;-70
2023/07/07 01:01:35;;;;;;;4.18;2.35;;;;;;;15.00;100.00;101749.66;6203837;28;20047;-70
2023/07/07 01:04:38;;;;;;;4.10;2.03;;;;;;;14.91;100.00;101751.00;6204185;28;20450;-70
2023/07/07 01:07:44;;;;;;;2.50;1.90;;;;;;;14.92;100.00;101751.88;6203739;28;20057;-70
2023/07/07 01:10:46;;;;;;;4.90;2.75;;;;;;;14.90;100.00;101754.59;6194734;28;20051;-69
2023/07/07 01:13:47;;;;;;;2.63;2.42;;;;;;;14.85;100.00;101754.00;6194088;28;20042;-70
2023/07/07 01:17:07;;;;;;;6.05;2.70;;;;;;;14.83;100.00;101755.88;6201966;28;20061;-70
2023/07/07 01:20:21;;;;;;;4.40;2.15;;;;;;;14.83;100.00;101750.56;6203582;28;20053;-70
2023/07/07 01:23:56;;;;;;;4.80;2.50;;;;;;;14.82;100.00;101753.31;6203512;28;20581;-69
2023/07/07 01:27:32;;;;;;;3.72;2.40;;;;;;;14.78;100.00;101751.78;6203706;28;20046;-70
2023/07/07 01:30:42;;;;;;;3.35;2.15;;;;;;;14.72;100.00;101752.97;6203435;28;20350;-70
2023/07/07 01:33:45;;;;;;;6.20;2.40;;;;;;;14.76;100.00;101753.63;6204292;28;20062;-70
2023/07/07 01:36:47;;;;;;;2.85;2.10;;;;;;;14.73;100.00;101756.47;6214696;28;20050;-70
2023/07/07 01:39:48;;;;;;;3.90;2.22;;;;;;;14.69;100.00;101756.63;6217397;28;20335;-70
2023/07/07 01:42:59;;;;;;;4.28;2.40;;;;;;;14.68;100.00;101749.63;6211586;28;20057;-70
2023/07/07 01:46:06;;;;;;;3.35;2.08;;;;;;;14.74;100.00;101751.09;6218512;28;20054;-70
2023/07/07 01:49:25;;;;;;;4.53;2.45;;;;;;;14.72;100.00;101755.63;6218984;28;20053;-70
2023/07/07 01:52:33;;;;;;;3.15;2.03;;;;;;;14.76;100.00;101751.88;6220176;28;20390;-70
2023/07/07 01:55:38;;;;;;;4.57;2.67;;;;;;;14.72;100.00;101750.31;6210833;28;20046;-70
2023/07/07 01:58:42;;;;;;;6.05;2.40;;;;;;;14.76;100.00;101745.69;6212120;28;20049;-70
2023/07/07 02:01:46;;;;;;;3.40;2.30;;;;;;;14.71;100.00;101744.16;6220552;28;20049;-70
2023/07/07 02:04:47;;;;;;;4.05;2.30;;;;;;;14.64;100.00;101747.25;6227175;28;20057;-70
2023/07/07 02:07:48;;;;;;;5.10;2.65;;;;;;;14.58;100.00;101740.50;6226841;28;20468;-70
2023/07/07 02:10:50;;;;;;;2.90;1.85;;;;;;;14.51;100.00;101749.69;6227189;28;20058;-70
2023/07/07 02:13:51;;;;;;;3.97;2.63;;;;;;;14.47;100.00;101738.38;6226571;28;20053;-70
2023/07/07 02:16:53;;;;;;;3.40;2.47;;;;;;;14.38;100.00;101743.31;6226950;28;20057;-70
2023/07/07 02:19:55;;;;;;;2.58;2.17;;;;;;;14.35;100.00;101743.47;6202378;28;20046;-70
2023/07/07 02:22:56;;;;;;;3.45;2.60;;;;;;;14.35;100.00;101744.34;6201940;28;20054;-70
2023/07/07 02:25:58;;;;;;;4.68;2.67;;;;;;;14.35;100.00;101744.34;6201612;28;20046;-70
2023/07/07 02:28:59;;;;;;;3.72;2.50;;;;;;;14.34;100.00;101745.25;6201813;28;20057;-70
2023/07/07 02:32:02;;;;;;;6.93;2.83;;;;;;;14.22;100.00;101751.22;6201099;28;20058;-70
2023/07/07 02:35:06;;;;;;;4.28;2.72;;;;;;;14.20;100.00;101747.78;6186313;28;20046;-70
2023/07/07 02:38:07;;;;;;;6.57;2.45;;;;;;;14.20;100.00;101743.34;6188775;28;20094;-70
2023/07/07 02:41:08;;;;;;;4.13;2.28;;;;;;;14.20;100.00;101743.34;6177805;28;20058;-70
2023/07/07 02:44:10;;;;;;;5.18;2.47;;;;;;;14.20;100.00;101743.34;6190702;28;20061;-70
2023/07/07 02:47:13;;;;;;;3.70;2.25;;;;;;;14.18;100.00;101747.00;6179819;28;20446;-70
2023/07/07 02:50:14;;;;;;;4.05;2.22;;;;;;;14.12;100.00;101742.03;6199686;28;20054;-70
2023/07/07 02:53:16;;;;;;;2.80;2.20;;;;;;;14.15;100.00;101741.88;6201283;28;20050;-70
2023/07/07 02:56:17;;;;;;;6.00;2.22;;;;;;;14.10;100.00;101747.41;6201649;28;20057;-70
2023/07/07 02:59:18;;;;;;;4.13;2.40;;;;;;;14.03;100.00;101747.78;6186889;28;20065;-70
2023/07/07 03:02:21;;;;;;;4.85;2.55;;;;;;;13.94;100.00;101747.34;6199931;28;20069;-70
2023/07/07 03:05:22;;;;;;;3.65;2.60;;;;;;;13.96;100.00;101753.41;6201360;28;20050;-70
2023/07/07 03:08:23;;;;;;;4.60;2.40;;;;;;;13.93;100.00;101753.56;6201319;28;20066;-70
2023/07/07 03:11:25;;;;;;;2.58;2.03;;;;;;;13.86;100.00;101757.47;6201358;28;20054;-70
2023/07/07 03:14:26;;;;;;;3.70;2.28;;;;;;;13.86;100.00;101761.91;6201172;28;20046;-70
2023/07/07 03:17:31;;;;;;;5.60;2.28;;;;;;;13.85;100.00;101762.81;6198986;28;20038;-70
2023/07/07 03:20:33;;;;;;;4.93;2.75;;;;;;;13.78;100.00;101762.28;6184217;28;20112;-70
2023/07/07 03:23:34;;;;;;;3.80;2.25;;;;;;;13.76;100.00;101764.13;6182349;28;20057;-70
2023/07/07 03:26:35;;;;;;;3.70;2.35;;;;;;;13.82;100.00;101761.19;6178226;28;20054;-70
2023/07/07 03:29:37;;;;;;;4.13;2.70;;;;;;;13.76;100.00;101760.63;6164534;28;20050;-70
2023/07/07 03:32:39;;;;;;;6.10;2.65;;;;;;;13.79;100.00;101769.25;6179038;28;20046;-70
2023/07/07 03:35:41;;;;;;;5.15;2.60;;;;;;;13.79;100.00;101771.91;6183000;28;20043;-70
2023/07/07 03:38:43;;;;;;;3.80;2.40;;;;;;;13.78;100.00;101762.28;6185311;28;20043;-70
2023/07/07 03:41:44;;;;;;;4.30;2.55;;;;;;;13.73;100.00;101766.09;6173097;28;20043;-70
2023/07/07 03:44:45;;;;;;;2.90;2.30;;;;;;;13.74;100.00;101765.16;6159062;28;20054;-70
2023/07/07 03:47:48;;;;;;;5.28;2.58;;;;;;;13.75;100.00;101772.13;6178827;28;20076;-70
2023/07/07 03:50:56;;;;;;;7.28;2.58;;;;;;;13.67;100.00;101785.72;6190270;28;20053;-69
2023/07/07 03:53:57;;;;;;;4.57;2.70;;;;;;;13.68;100.00;101790.94;6181362;28;20545;-70
2023/07/07 03:56:59;;;;;;;3.47;2.53;;;;;;;13.68;100.00;101788.31;6184422;28;20053;-70
2023/07/07 04:00:00;;;;;;;4.40;2.83;;;;;;;13.69;100.00;101802.34;6188853;28;20541;-70
2023/07/07 04:03:03;;;;;;;4.03;2.88;;;;;;;13.70;100.00;101801.41;6181039;28;20045;-70
2023/07/07 04:06:04;;;;;;;4.78;2.70;;;;;;;13.76;100.00;101806.38;6184231;28;20046;-69
2023/07/07 04:09:05;;;;;;;4.82;2.95;;;;;;;13.78;100.00;101799.25;6183598;28;20057;-70
2023/07/07 04:12:11;;;;;;;3.85;2.47;;;;;;;13.80;100.00;101802.66;6184357;28;20350;-70
2023/07/07 04:15:12;;;;;;;3.75;2.67;;;;;;;13.80;100.00;101801.81;6184197;28;20042;-69
2023/07/07 04:18:16;;;;;;;4.65;2.92;;;;;;;13.81;100.00;101807.03;6192668;28;20355;-69
2023/07/07 04:21:20;;;;;;;5.18;3.08;;;;;;;13.83;100.00;101820.16;6205053;28;20046;-69
2023/07/07 04:24:21;;;;;;;7.20;3.20;;;;;;;13.86;100.00;101820.88;6204653;28;20054;-69
2023/07/07 04:27:23;;;;;;;6.40;3.58;;;;;;;13.93;100.00;101818.78;6204862;28;20140;-69
2023/07/07 04:30:24;;;;;;;5.85;3.00;;;;;;;13.92;100.00;101812.63;6204744;28;20050;-69
2023/07/07 04:33:28;;;;;;;10.02;3.42;;;;;;;13.93;100.00;101814.34;6204239;28;20438;-69
2023/07/07 04:36:30;;;;;;;5.00;2.90;;;;;;;13.96;100.00;101827.41;6194883;28;20401;-69
2023/07/07 04:39:31;;;;;;;5.05;2.88;;;;;;;13.99;100.00;101825.53;6188360;28;20466;-69
2023/07/07 04:42:32;;;;;;;6.53;3.13;;;;;;;14.03;100.00;101824.44;6196229;28;20047;-69
2023/07/07 04:45:34;;;;;;;5.50;2.67;;;;;;;14.04;100.00;101815.59;6186996;28;20347;-69
2023/07/07 04:48:37;;;;;;;4.75;2.70;;;;;;;14.10;100.00;101825.84;6204087;28;20362;-70
2023/07/07 04:51:40;;;;;;;6.53;3.80;;;;;;;14.14;100.00;101832.69;6203883;28;20051;-69
2023/07/07 04:54:41;;;;;;;7.88;2.80;;;;;;;14.21;100.00;101828.78;6203992;28;20061;-71
2023/07/07 04:57:42;;;;;;;5.70;3.05;;;;;;;14.21;100.00;101823.50;6195668;28;20054;-71
2023/07/07 05:00:44;;;;;;;7.82;3.38;;;;;;;14.23;100.00;101820.81;6186396;28;20050;-71
2023/07/07 05:03:52;;;;;;;5.97;3.10;;;;;;;14.26;100.00;101825.91;6197234;28;20050;-71
2023/07/07 05:06:54;;;;;;;5.75;3.00;;;;;;;14.31;100.00;101824.78;6197421;28;20135;-72
2023/07/07 05:09:55;;;;;;;6.18;2.38;;;;;;;14.34;100.00;101824.59;6187478;28;20109;-69
2023/07/07 05:12:57;;;;;;;2.45;2.00;;;;;;;14.40;100.00;101826.09;6190975;28;20046;-69
2023/07/07 05:16:02;;;;;;;4.20;2.45;;;;;;;14.47;100.00;101836.25;6191235;28;20046;-69
2023/07/07 05:19:05;;;;;;;4.65;2.50;;;;;;;14.55;100.00;101835.03;6191212;28;20479;-69
2023/07/07 05:22:06;;;;;;;3.15;2.33;;;;;;;14.60;100.00;101831.19;6189787;28;20352;-69
2023/07/07 05:25:08;;;;;;;3.33;2.50;;;;;;;14.62;100.00;101829.31;6191107;28;20047;-69
2023/07/07 05:28:09;;;;;;;3.17;2.17;;;;;;;14.68;100.00;101833.44;6190138;28;20054;-69
2023/07/07 05:31:10;;;;;;;3.05;2.22;;;;;;;14.75;100.00;101834.81;6190080;28;20051;-71
2023/07/07 05:34:13;;;;;;;3.50;2.42;;;;;;;14.81;100.00;101836.31;6190592;28;20351;-71
2023/07/07 05:37:14;;;;;;;5.25;2.70;;;;;;;14.86;100.00;101840.41;6190699;28;20047;-71
2023/07/07 05:40:16;;;;;;;4.75;2.58;;;;;;;14.92;100.00;101840.06;6191103;28;20125;-71
2023/07/07 05:43:20;;;;;;;4.65;2.72;;;;;;;14.94;100.00;101839.97;6190463;28;20058;-71
2023/07/07 05:46:21;;;;;;;7.25;2.50;;;;;;;14.96;100.00;101835.47;6193910;28;20356;-71
2023/07/07 05:49:24;;;;;;;5.20;2.20;;;;;;;15.01;100.00;101840.50;6189621;28;20051;-72
2023/07/07 05:52:25;;;;;;;3.97;2.00;;;;;;;15.06;100.00;101835.81;6190938;28;20046;-71
2023/07/07 05:55:28;;;;;;;2.33;1.95;;;;;;;15.13;100.00;101846.00;6188642;28;20046;-71
2023/07/07 05:58:31;;;;;;;5.93;1.95;;;;;;;15.18;100.00;101846.59;6189756;28;20061;-71
2023/07/07 06:01:33;;;;;;;3.45;2.22;;;;;;;15.23;100.00;101847.19;6197494;28;20046;-71
2023/07/07 06:04:36;;;;;;;4.65;2.15;;;;;;;15.31;100.00;101853.88;6202387;28;20563;-71
2023/07/07 06:07:37;;;;;;;3.28;2.22;;;;;;;15.38;100.00;101856.06;6194028;28;20054;-72
2023/07/07 06:10:38;;;;;;;4.38;2.22;;;;;;;15.46;100.00;101855.66;6185733;28;20469;-71
2023/07/07 06:13:40;;;;;;;2.85;1.58;;;;;;;15.53;100.00;101857.00;6194591;28;20057;-71
2023/07/07 06:16:41;;;;;;;4.22;2.22;;;;;;;15.60;100.00;101849.56;6202233;28;20046;-72
2023/07/07 06:19:43;;;;;;;3.35;2.00;;;;;;;15.65;100.00;101848.41;6202084;28;20050;-72
2023/07/07 06:22:45;;;;;;;2.40;1.70;;;;;;;15.67;100.00;101849.19;6201707;28;20332;-71
2023/07/07 06:25:47;;;;;;;4.25;1.80;;;;;;;15.69;100.00;101849.09;6202053;28;20053;-71
2023/07/07 06:28:49;;;;;;;3.05;2.38;;;;;;;15.73;100.00;101847.97;6191040;28;20046;-71
2023/07/07 06:31:50;;;;;;;3.13;1.60;;;;;;;15.81;100.00;101848.38;6191559;28;20058;-71
2023/07/07 06:34:53;;;;;;;7.22;1.58;;;;;;;15.90;100.00;101852.31;6189711;28;20046;-71
2023/07/07 06:37:54;;;;;;;2.83;1.77;;;;;;;15.97;100.00;101854.50;6190867;28;20308;-71
2023/07/07 06:40:55;;;;;;;3.25;1.90;;;;;;;16.04;100.00;101857.66;6201734;28;20362;-72
2023/07/07 06:43:57;;;;;;;3.80;1.40;;;;;;;16.06;100.00;101862.84;6198601;28;20043;-71
2023/07/07 06:46:58;;;;;;;4.55;1.63;;;;;;;16.17;100.00;101868.41;6188773;28;20133;-72
2023/07/07 06:50:01;;;;;;;2.15;1.30;;;;;;;16.24;100.00;101873.22;6201811;28;20046;-71
2023/07/07 06:53:03;;;;;;;1.75;1.20;;;;;;;16.35;100.00;101864.66;6200977;28;20054;-71
2023/07/07 06:56:05;;;;;;;1.75;1.58;;;;;;;16.40;100.00;101862.56;6201373;28;20050;-72
2023/07/07 06:59:06;;;;;;;1.75;1.23;;;;;;;16.46;99.59;101869.31;6188975;28;20050;-71
2023/07/07 07:02:12;;;;;;;3.33;1.27;;;;;;;16.53;99.63;101869.78;6194541;28;20062;-72
2023/07/07 07:05:15;;;;;;;3.78;1.45;;;;;;;16.60;98.68;101871.97;6193652;28;20069;-69
2023/07/07 07:08:16;;;;;;;2.38;1.30;;;;;;;16.66;97.59;101870.75;6179476;28;20355;-71
2023/07/07 07:11:17;;;;;;;2.33;1.40;;;;;;;16.78;95.79;101878.00;6203616;28;20050;-72
2023/07/07 07:14:20;;;;;;;5.80;2.35;;;;;;;16.86;95.67;101870.44;6205943;28;20061;-71
2023/07/07 07:17:22;;;;;;;6.45;1.48;;;;;;;16.89;95.69;101870.22;6206331;28;20049;-71
2023/07/07 07:20:24;;;;;;;1.52;1.30;;;;;;;16.99;93.98;101878.50;6206165;28;20431;-71
2023/07/07 07:23:26;;;;;;;1.63;1.33;;;;;;;17.07;94.05;101878.84;6205949;28;20053;-72
2023/07/07 07:26:27;;;;;;;1.67;1.27;;;;;;;17.19;92.47;101879.88;6199186;28;20062;-69
2023/07/07 07:29:28;;;;;;;1.80;1.08;;;;;;;17.25;90.72;101869.72;6184545;28;20058;-69
2023/07/07 07:32:30;;;;;;;2.95;1.55;;;;;;;17.39;87.94;101866.16;6189574;28;20052;-68
2023/07/07 07:35:33;;;;;;;2.25;1.58;;;;;;;17.55;83.09;101868.72;6181628;28;20078;-69
2023/07/07 07:38:34;;;;;;;1.48;1.10;;;;;;;17.52;84.94;101871.56;6205644;28;20049;-69
2023/07/07 07:41:37;;;;;;;2.42;1.25;;;;;;;17.78;82.15;101866.41;6197352;28;20046;-69
2023/07/07 07:44:38;;;;;;;3.97;1.48;;;;;;;17.90;80.01;101865.59;6197966;28;20354;-69
2023/07/07 07:47:40;;;;;;;2.92;1.00;;;;;;;17.94;78.46;101867.06;6205487;28;20062;-69
2023/07/07 07:50:42;;;;;;;2.45;1.30;;;;;;;18.06;78.48;101860.09;6205715;28;20053;-69
2023/07/07 07:53:44;;;;;;;5.03;2.05;;;;;;;18.17;78.63;101860.22;6205205;28;20058;-68
2023/07/07 07:56:46;;;;;;;2.88;1.38;;;;;;;18.25;78.24;101865.88;6205131;28;20332;-69
2023/07/07 07:59:47;;;;;;;2.72;1.13;;;;;;;18.22;80.48;101866.94;6205230;28;20129;-69
2023/07/07 08:02:50;;;;;;;3.58;1.30;;;;;;;18.34;79.69;101862.56;6205260;28;20061;-70
2023/07/07 08:05:52;;;;;;;3.17;1.45;;;;;;;18.41;81.47;101866.53;6205229;28;20054;-69
2023/07/07 08:08:54;;;;;;;2.78;1.30;;;;;;;18.46;80.88;101869.72;6207373;28;20046;-69
2023/07/07 08:11:59;;;;;;;2.60;1.15;;;;;;;18.47;81.53;101870.59;6191733;28;20050;-69
2023/07/07 08:15:01;;;;;;;5.75;1.23;;;;;;;18.56;78.55;101877.09;6200174;28;20046;-69
2023/07/07 08:18:02;;;;;;;4.13;1.52;;;;;;;18.63;80.38;101870.38;6204943;28;20042;-69
2023/07/07 08:21:05;;;;;;;1.90;1.05;;;;;;;18.66;79.20;101872.81;6204508;28;20050;-69
2023/07/07 08:24:07;;;;;;;3.58;1.45;;;;;;;18.80;78.04;101871.88;6204729;28;20046;-69
2023/07/07 08:27:09;;;;;;;2.00;1.05;;;;;;;18.78;78.47;101871.16;6204609;28;20046;-69
2023/07/07 08:30:11;;;;;;;2.38;1.17;;;;;;;18.82;79.17;101878.81;6204868;28;20057;-69
2023/07/07 08:33:13;;;;;;;2.70;0.90;;;;;;;18.88;78.11;101877.53;6204282;28;20050;-69
2023/07/07 08:36:16;;;;;;;0.93;0.80;;;;;;;19.00;77.00;101874.00;6195980;28;20100;-69
2023/07/07 08:39:20;;;;;;;1.45;1.20;;;;;;;19.06;76.50;101878.91;6196206;28;20054;-69
2023/07/07 08:42:26;;;;;;;4.57;1.45;;;;;;;19.19;75.21;101884.22;6182063;28;20523;-70
2023/07/07 08:45:28;;;;;;;1.38;1.15;;;;;;;19.32;75.30;101879.72;6204555;28;20051;-69
2023/07/07 08:48:41;;;;;;;2.17;1.17;;;;;;;19.37;74.57;101887.38;6195139;28;20049;-69
2023/07/07 08:51:50;;;;;;;4.07;1.10;;;;;;;19.33;73.80;101881.41;6204028;28;20057;-69
2023/07/07 08:55:00;;;;;;;1.75;1.00;;;;;;;19.30;73.31;101883.44;6204398;28;20061;-69
2023/07/07 08:58:06;;;;;;;1.00;0.90;;;;;;;19.40;72.43;101882.69;6203819;28;20042;-69
2023/07/07 09:01:25;;;;;;;0.80;0.80;;;;;;;19.44;71.57;101885.94;6208292;28;20047;-69
2023/07/07 09:04:35;;;;;;;0.88;0.88;;;;;;;19.55;68.86;101885.19;6187429;28;20099;-69
2023/07/07 09:07:54;;;;;;;1.10;0.88;;;;;;;19.64;66.70;101881.88;6183238;28;20043;-69
2023/07/07 09:11:10;;;;;;;2.08;1.08;;;;;;;19.55;66.96;101880.69;6187182;28;20054;-68
2023/07/07 09:14:13;;;;;;;2.38;1.27;;;;;;;19.64;64.61;101879.22;6185480;28;20371;-69
2023/07/07 09:17:19;;;;;;;1.83;0.90;;;;;;;19.86;63.02;101895.34;6189614;28;20046;-69
2023/07/07 09:20:24;;;;;;;0.80;0.80;;;;;;;19.91;59.98;101885.16;6190183;28;20428;-69
2023/07/07 09:23:29;;;;;;;1.90;1.00;;;;;;;20.02;60.98;101890.53;6189613;28;20138;-69
2023/07/07 09:26:33;;;;;;;1.13;0.60;;;;;;;20.34;56.88;101881.91;6191886;28;20049;-69
2023/07/07 09:29:35;;;;;;;1.17;0.80;;;;;;;20.43;58.33;101877.69;6187004;28;20047;-69
2023/07/07 09:32:36;;;;;;;1.35;1.15;;;;;;;20.58;56.56;101883.72;6201931;28;20057;-68
2023/07/07 09:35:42;;;;;;;1.52;0.80;;;;;;;20.63;55.99;101884.22;6196535;28;20046;-67
2023/07/07 09:38:58;;;;;;;1.75;1.08;;;;;;;20.67;57.42;101888.34;6186296;28;20038;-69
2023/07/07 09:42:11;;;;;;;3.67;1.40;;;;;;;20.57;57.53;101887.34;6196601;28;20050;-69
2023/07/07 09:45:28;;;;;;;2.50;0.90;;;;;;;20.67;58.34;101885.69;6191197;28;20442;-71
2023/07/07 09:48:37;;;;;;;1.27;0.65;;;;;;;20.68;59.43;101880.19;6193304;28;20449;-72
2023/07/07 09:51:47;;;;;;;2.50;1.15;;;;;;;20.74;58.27;101874.38;6183842;28;20069;-72
2023/07/07 09:54:51;;;;;;;3.40;1.00;;;;;;;20.73;57.62;101878.03;6194575;28;20057;-72
2023/07/07 09:58:03;;;;;;;0.93;0.82;;;;;;;20.86;57.83;101875.25;6194343;28;20073;-72
2023/07/07 10:01:05;;;;;;;1.73;1.10;;;;;;;21.11;55.72;101878.63;6197522;28;20046;-71
2023/07/07 10:04:13;;;;;;;2.88;1.05;;;;;;;21.14;57.03;101875.72;6206428;28;20050;-71
2023/07/07 10:07:18;;;;;;;2.35;1.08;;;;;;;21.27;55.27;101879.09;6184564;28;20039;-72
2023/07/07 10:10:20;;;;;;;1.67;0.90;;;;;;;21.34;55.73;101880.31;6199762;28;20346;-72
2023/07/07 10:13:22;;;;;;;1.00;0.90;;;;;;;21.48;51.67;101880.09;6201911;28;20370;-71
2023/07/07 10:16:35;;;;;;;1.92;1.10;;;;;;;21.46;51.30;101890.03;6202448;28;20076;-73
2023/07/07 10:19:41;;;;;;;1.48;0.80;;;;;;;21.42;53.54;101882.41;6199288;28;20054;-71
2023/07/07 10:22:43;;;;;;;3.13;1.00;;;;;;;21.42;52.47;101883.25;6193420;28;20054;-73
2023/07/07 10:25:47;;;;;;;3.85;1.30;;;;;;;21.59;51.99;101881.03;6188767;28;20051;-72
2023/07/07 10:28:48;;;;;;;1.67;0.98;;;;;;;21.57;53.18;101869.59;6187170;28;20125;-72
2023/07/07 10:31:51;;;;;;;2.08;1.45;;;;;;;21.62;53.72;101878.97;6201598;28;20057;-73
2023/07/07 10:34:54;;;;;;;1.48;1.02;;;;;;;21.74;53.65;101877.94;6201747;28;20354;-72
2023/07/07 10:38:01;;;;;;;2.22;0.98;;;;;;;21.93;51.31;101874.56;6201654;28;20059;-72
2023/07/07 10:41:04;;;;;;;1.67;0.88;;;;;;;21.94;52.44;101873.63;6201935;28;20273;-72
2023/07/07 10:44:05;;;;;;;2.63;1.00;;;;;;;21.87;52.39;101869.72;6201245;28;20332;-72
2023/07/07 10:47:09;;;;;;;2.28;1.02;;;;;;;21.86;51.32;101868.03;6201431;28;20051;-72
2023/07/07 10:50:14;;;;;;;1.30;0.98;;;;;;;21.91;52.10;101860.47;6201593;28;20042;-72
2023/07/07 10:53:28;;;;;;;2.28;0.95;;;;;;;21.91;51.39;101864.97;6201085;28;20054;-72
2023/07/07 10:56:35;;;;;;;2.25;1.20;;;;;;;21.93;52.03;101861.19;6201632;28;20042;-73
2023/07/07 10:59:54;;;;;;;2.15;1.15;;;;;;;22.03;52.54;101863.97;6201368;28;20046;-72
2023/07/07 11:03:14;;;;;;;1.92;1.05;;;;;;;22.14;51.42;101863.06;6195232;28;20058;-73
2023/07/07 11:06:26;;;;;;;2.17;1.20;;;;;;;22.38;50.94;101857.47;6201092;28;20354;-72
2023/07/07 11:09:41;;;;;;;2.60;1.00;;;;;;;22.36;53.02;101854.06;6207631;28;20046;-72
2023/07/07 11:13:02;;;;;;;12.27;1.75;;;;;;;22.46;52.38;101860.34;6193668;28;20461;-72
2023/07/07 11:16:19;;;;;;;1.45;1.00;;;;;;;22.61;51.48;101860.81;6201349;28;20073;-73
2023/07/07 11:19:35;;;;;;;5.25;1.02;;;;;;;22.61;51.55;101861.69;6187596;28;20442;-69
2023/07/07 11:22:56;;;;;;;1.25;1.05;;;;;;;22.63;52.52;101856.22;6194877;28;20355;-71
2023/07/07 11:26:06;;;;;;;2.05;1.08;;;;;;;22.81;52.64;101848.41;6190880;28;20053;-71
2023/07/07 11:29:16;;;;;;;1.35;0.80;;;;;;;23.13;50.55;101861.66;6200823;28;20042;-70
2023/07/07 11:32:25;;;;;;;1.45;0.80;;;;;;;23.22;51.68;101863.53;6187859;28;20462;-71
2023/07/07 11:35:42;;;;;;;1.30;0.77;;;;;;;23.28;50.64;101850.41;6195627;28;20051;-71
2023/07/07 11:38:57;;;;;;;2.20;1.25;;;;;;;23.49;49.70;101855.69;6200885;28;20046;-71
2023/07/07 11:42:18;;;;;;;1.70;1.08;;;;;;;23.63;49.57;101851.75;6198546;28;20046;-70
2023/07/07 11:45:29;;;;;;;1.73;1.10;;;;;;;23.81;53.39;101848.41;6197453;28;20046;-72
2023/07/07 11:48:42;;;;;;;1.85;0.90;;;;;;;23.91;49.83;101850.09;6192040;28;20054;-71
2023/07/07 11:51:52;;;;;;;2.33;0.98;;;;;;;24.23;47.68;101856.97;6191977;28;20050;-71
2023/07/07 11:55:17;;;;;;;1.77;1.23;;;;;;;24.33;53.53;101852.44;6185107;28;20350;-71
2023/07/07 11:58:32;;;;;;;1.92;1.08;;;;;;;24.46;46.96;101850.31;6192626;28;20042;-70
2023/07/07 12:01:38;;;;;;;3.40;1.10;;;;;;;24.45;48.28;101840.56;6191412;28;20058;-72
2023/07/07 12:04:43;;;;;;;0.60;0.60;;;;;;;24.87;44.68;101853.56;6201193;28;20053;-71
2023/07/07 12:07:51;;;;;;;3.10;1.00;;;;;;;25.00;44.18;101842.47;6205002;28;20042;-72
2023/07/07 12:10:58;;;;;;;1.65;0.98;;;;;;;25.15;44.18;101840.16;6205213;28;20073;-70
2023/07/07 12:14:06;;;;;;;1.90;1.08;;;;;;;25.22;47.04;101836.72;6196666;28;20055;-70
2023/07/07 12:17:15;;;;;;;3.88;1.02;;;;;;;25.41;44.80;101834.91;6201304;28;20049;-71
2023/07/07 12:20:22;;;;;;;2.03;0.80;;;;;;;25.42;45.08;101834.75;6201403;28;20461;-71
2023/07/07 12:23:29;;;;;;;2.47;1.02;;;;;;;25.44;44.35;101824.69;6200925;28;20053;-71
2023/07/07 12:26:34;;;;;;;1.38;1.00;;;;;;;25.70;46.75;101830.13;6198093;28;20198;-71
2023/07/07 12:29:38;;;;;;;1.40;0.88;;;;;;;25.75;42.50;101829.66;6191186;28;20054;-71
2023/07/07 12:32:41;;;;;;;1.38;0.70;;;;;;;25.73;42.54;101826.28;6198061;28;20049;-71
2023/07/07 12:35:47;;;;;;;2.63;1.25;;;;;;;25.96;43.01;101821.31;6190547;28;20188;-71
2023/07/07 12:38:50;;;;;;;2.72;0.88;;;;;;;26.02;42.35;101817.97;6187661;28;20054;-71
2023/07/07 12:41:51;;;;;;;1.15;0.55;;;;;;;26.17;42.26;101813.72;6189575;28;20050;-71
2023/07/07 12:44:53;;;;;;;1.40;1.10;;;;;;;26.23;40.60;101817.63;6196128;28;20046;-72
2023/07/07 12:48:00;;;;;;;2.00;1.00;;;;;;;26.38;38.79;101816.03;6186208;28;20070;-72
2023/07/07 12:51:05;;;;;;;1.15;0.88;;;;;;;26.55;39.31;101811.63;6190815;28;20054;-72
2023/07/07 12:54:28;;;;;;;1.38;0.93;;;;;;;26.45;40.37;101822.53;6184410;28;20046;-72
2023/07/07 12:57:30;;;;;;;0.98;0.80;;;;;;;26.43;40.88;101805.63;6202400;28;20050;-72
2023/07/07 13:00:33;;;;;;;1.10;0.77;;;;;;;26.45;40.49;101795.56;6197558;28;20043;-72
2023/07/07 13:03:43;;;;;;;2.28;0.80;;;;;;;26.53;37.78;101792.06;6202649;28;20050;-70
2023/07/07 13:07:03;;;;;;;1.77;0.77;;;;;;;26.67;36.52;101796.00;6185227;28;20050;-72
2023/07/07 13:10:47;;;;;;;1.55;0.93;;;;;;;26.93;35.68;101796.78;6190569;28;20054;-72
2023/07/07 13:13:48;;;;;;;2.47;1.00;;;;;;;27.20;38.30;101792.16;6192101;28;20089;-72
2023/07/07 13:16:49;;;;;;;2.65;0.80;;;;;;;27.50;37.45;101790.69;6195369;28;20046;-72
2023/07/07 13:19:56;;;;;;;1.85;0.93;;;;;;;27.65;36.18;101796.28;6183813;28;20118;-73
2023/07/07 13:23:04;;;;;;;1.58;0.82;;;;;;;27.41;36.79;101791.69;6190714;28;20054;-73
2023/07/07 13:26:22;;;;;;;1.30;0.75;;;;;;;27.35;37.42;101797.78;6191474;28;20051;-72
2023/07/07 13:29:27;;;;;;;3.70;1.13;;;;;;;27.18;39.81;101792.34;6186723;28;20077;-73
2023/07/07 13:32:30;;;;;;;0.85;0.85;;;;;;;27.34;39.61;101788.81;6197785;28;20297;-72
2023/07/07 13:35:31;;;;;;;1.55;0.75;;;;;;;27.25;37.08;101782.56;6205271;28;20053;-72
2023/07/07 13:38:38;;;;;;;0.80;0.80;;;;;;;27.33;35.75;101784.44;6202912;28;20328;-73
2023/07/07 13:41:44;;;;;;;1.80;1.00;;;;;;;27.50;36.74;101783.44;6202623;28;20042;-73
2023/07/07 13:44:45;;;;;;;1.77;0.95;;;;;;;27.78;35.88;101783.97;6202843;28;20039;-73
2023/07/07 13:47:48;;;;;;;1.77;1.02;;;;;;;27.60;38.64;101783.28;6195149;28;20046;-73
2023/07/07 13:50:50;;;;;;;1.15;0.73;;;;;;;28.17;35.30;101782.44;6202962;28;20050;-73
2023/07/07 13:53:51;;;;;;;2.28;1.33;;;;;;;28.13;34.93;101779.22;6202270;28;20057;-72
2023/07/07 13:57:02;;;;;;;0.75;0.60;;;;;;;28.32;37.15;101786.09;6202316;28;20358;-72
2023/07/07 14:00:06;;;;;;;1.85;0.88;;;;;;;28.50;37.66;101784.06;6202506;28;20061;-72
2023/07/07 14:03:17;;;;;;;1.92;0.98;;;;;;;28.48;34.72;101780.69;6202333;28;20442;-72
2023/07/07 14:06:21;;;;;;;2.08;1.30;;;;;;;28.63;37.26;101778.09;6202208;28;20363;-72
2023/07/07 14:09:24;;;;;;;1.58;0.80;;;;;;;28.51;37.59;101771.38;6201528;28;20180;-73
2023/07/07 14:12:29;;;;;;;0.82;0.75;;;;;;;28.60;35.97;101772.19;6201180;28;20054;-72
2023/07/07 14:15:36;;;;;;;1.70;0.85;;;;;;;28.73;35.92;101767.91;6201207;28;20053;-72